Time;durP1;ratioP1;P1;durP2;ratioP2;P2;SDS_P1;SDS_P2;PMS_P1;PMS_P2;Temp;Humidity;BMP_temperature;BMP_pressure;BME280_temperature;BME280_humidity;BME280_pressure;Samples;Min_cycle;Max_cycle;Signal;HPM_P1;HPM_P2
2022/05/03 00:00:27;;;;;;;14.68;13.18;;;14.50;99.90;;;;;;5114853;28;20210;-72
2022/05/03 00:03:02;;;;;;;13.25;11.85;;;14.50;99.90;;;;;;5114836;28;20568;-72
2022/05/03 00:05:37;;;;;;;14.88;12.10;;;14.50;99.90;;;;;;5114724;28;20222;-71
2022/05/03 00:08:05;;;;;;;11.75;10.68;;;14.50;99.90;;;;;;5114942;28;20198;-72
2022/05/03 00:10:41;;;;;;;12.10;10.80;;;14.50;99.90;;;;;;5114835;28;20202;-72
2022/05/03 00:13:12;;;;;;;11.98;10.85;;;14.50;99.90;;;;;;5114714;28;20206;-71
2022/05/03 00:15:41;;;;;;;12.50;10.98;;;14.50;99.90;;;;;;5114527;28;20265;-71
2022/05/03 00:18:09;;;;;;;14.70;12.05;;;14.50;99.90;;;;;;5114740;28;20205;-71
2022/05/03 00:20:36;;;;;;;13.63;11.45;;;14.50;99.90;;;;;;5114390;27;20739;-72
2022/05/03 00:23:04;;;;;;;13.30;11.57;;;14.50;99.90;;;;;;5114635;28;20288;-71
2022/05/03 00:25:33;;;;;;;12.93;11.48;;;14.50;99.90;;;;;;5114564;28;20302;-71
2022/05/03 00:28:01;;;;;;;12.73;10.88;;;14.50;99.90;;;;;;5114490;28;20202;-71
2022/05/03 00:30:28;;;;;;;13.93;11.60;;;14.40;99.90;;;;;;5114348;28;20214;-71
2022/05/03 00:32:56;;;;;;;13.73;11.05;;;14.30;99.90;;;;;;5114368;28;20617;-71
2022/05/03 00:35:24;;;;;;;14.23;12.73;;;14.40;99.90;;;;;;5114204;28;20232;-71
2022/05/03 00:37:51;;;;;;;15.05;13.13;;;14.40;99.90;;;;;;5114403;28;20203;-71
2022/05/03 00:40:19;;;;;;;14.85;13.27;;;14.40;99.90;;;;;;5114370;28;20226;-72
2022/05/03 00:42:59;;;;;;;15.93;14.00;;;14.40;99.90;;;;;;5114324;28;20202;-71
2022/05/03 00:45:33;;;;;;;16.75;13.95;;;14.30;99.90;;;;;;5113913;28;20589;-71
2022/05/03 00:48:07;;;;;;;16.15;13.35;;;14.10;99.90;;;;;;5114222;28;20561;-71
2022/05/03 00:50:38;;;;;;;16.30;13.48;;;14.00;99.90;;;;;;5114241;28;20559;-71
2022/05/03 00:53:16;;;;;;;15.15;13.65;;;14.00;99.90;;;;;;5114251;28;20563;-71
2022/05/03 00:56:26;;;;;;;15.70;13.80;;;14.10;99.90;;;;;;5113838;28;20251;-71
2022/05/03 00:59:03;;;;;;;15.05;12.82;;;14.10;99.90;;;;;;5098435;28;20208;-71
2022/05/03 01:01:39;;;;;;;19.83;14.10;;;14.10;99.90;;;;;;5114142;28;20292;-71
2022/05/03 01:04:15;;;;;;;16.42;14.73;;;14.00;99.90;;;;;;5113721;28;20296;-71
2022/05/03 01:06:56;;;;;;;15.95;14.27;;;14.00;99.90;;;;;;5114094;28;20225;-71
2022/05/03 01:09:33;;;;;;;14.25;12.75;;;13.90;99.90;;;;;;5114071;28;20563;-71
2022/05/03 01:12:21;;;;;;;15.02;12.73;;;13.90;99.90;;;;;;5115877;28;20198;-71
2022/05/03 01:15:09;;;;;;;13.60;12.20;;;13.90;99.90;;;;;;5117812;28;20312;-71
2022/05/03 01:17:45;;;;;;;13.65;12.10;;;13.80;99.90;;;;;;5118276;28;20205;-71
2022/05/03 01:20:15;;;;;;;14.70;13.10;;;13.80;99.90;;;;;;5117986;28;20205;-71
2022/05/03 01:23:14;;;;;;;15.50;13.57;;;13.70;99.90;;;;;;5118154;28;20207;-71
2022/05/03 01:25:55;;;;;;;16.33;14.60;;;13.70;99.90;;;;;;5118083;28;20225;-71
2022/05/03 01:28:29;;;;;;;16.52;14.43;;;13.70;99.90;;;;;;5117788;28;20201;-71
2022/05/03 01:31:03;;;;;;;15.77;13.93;;;13.60;99.90;;;;;;5117997;28;20197;-71
2022/05/03 01:33:32;;;;;;;15.88;14.05;;;13.50;99.90;;;;;;5117752;28;20213;-71
2022/05/03 01:36:00;;;;;;;17.15;13.93;;;13.50;99.90;;;;;;5117755;28;20229;-71
2022/05/03 01:38:46;;;;;;;15.50;13.73;;;13.40;99.90;;;;;;5117799;28;20198;-71
2022/05/03 01:41:26;;;;;;;16.65;14.38;;;13.40;99.90;;;;;;5117804;27;20211;-71
2022/05/03 01:44:09;;;;;;;18.00;15.05;;;13.20;99.90;;;;;;5117496;28;20217;-71
2022/05/03 01:46:38;;;;;;;16.40;14.70;;;13.20;99.90;;;;;;5117374;28;20699;-71
2022/05/03 01:52:05;;;;;;;17.90;15.48;;;13.20;99.90;;;;;;5117636;28;20208;-71
2022/05/03 01:54:58;;;;;;;19.25;16.05;;;13.20;99.90;;;;;;5116972;28;20708;-71
2022/05/03 01:57:33;;;;;;;16.38;14.63;;;13.10;99.90;;;;;;5117580;28;20548;-71
2022/05/03 02:00:06;;;;;;;17.60;15.07;;;13.20;99.90;;;;;;5117344;27;20205;-71
2022/05/03 02:02:53;;;;;;;18.63;15.43;;;13.20;99.90;;;;;;5117251;28;20663;-71
2022/05/03 02:05:33;;;;;;;19.45;16.30;;;13.20;99.90;;;;;;5117155;28;20221;-70
2022/05/03 02:08:00;;;;;;;18.90;16.30;;;13.10;99.90;;;;;;5117128;28;20286;-70
2022/05/03 02:10:50;;;;;;;21.27;17.25;;;13.10;99.90;;;;;;5117128;28;20212;-71
2022/05/03 02:16:30;;;;;;;21.17;16.92;;;12.90;99.90;;;;;;5111549;27;20587;-71
2022/05/03 02:19:09;;;;;;;21.50;16.67;;;12.90;99.90;;;;;;5117073;28;20202;-71
2022/05/03 02:21:47;;;;;;;17.52;15.73;;;13.00;99.90;;;;;;5117051;28;20205;-71
2022/05/03 02:24:22;;;;;;;21.80;17.73;;;12.90;99.90;;;;;;5117091;28;20258;-71
2022/05/03 02:26:55;;;;;;;19.98;16.42;;;12.90;99.90;;;;;;5116695;28;20624;-71
2022/05/03 02:29:31;;;;;;;21.80;18.10;;;12.90;99.90;;;;;;5116593;28;20216;-71
2022/05/03 02:32:04;;;;;;;21.80;17.23;;;12.80;99.90;;;;;;5116602;28;20201;-71
2022/05/03 02:34:40;;;;;;;21.15;16.80;;;12.70;99.90;;;;;;5116457;28;20206;-71
2022/05/03 02:37:15;;;;;;;19.45;16.80;;;12.60;99.90;;;;;;5116518;28;20635;-71
2022/05/03 02:39:51;;;;;;;25.08;17.83;;;12.60;99.90;;;;;;5116661;28;20205;-71
2022/05/03 02:42:20;;;;;;;19.23;17.10;;;12.60;99.90;;;;;;5117127;28;20186;-71
2022/05/03 02:44:48;;;;;;;21.10;17.70;;;12.70;99.90;;;;;;5116339;27;20247;-71
2022/05/03 02:47:28;;;;;;;20.45;17.17;;;12.60;99.90;;;;;;5116572;28;20545;-71
2022/05/03 02:50:08;;;;;;;22.00;18.58;;;12.50;99.90;;;;;;5116497;27;20209;-71
2022/05/03 02:52:48;;;;;;;21.20;18.08;;;12.40;99.90;;;;;;5116368;28;20208;-71
2022/05/03 02:55:21;;;;;;;20.70;18.17;;;12.40;99.90;;;;;;5116167;28;20233;-71
2022/05/03 02:57:55;;;;;;;23.80;19.02;;;12.30;99.90;;;;;;5116409;28;20201;-71
2022/05/03 03:03:31;;;;;;;23.30;19.20;;;12.30;99.90;;;;;;5116153;28;20630;-71
2022/05/03 03:06:01;;;;;;;22.35;17.83;;;12.30;99.90;;;;;;5115765;28;20254;-71
2022/05/03 03:08:32;;;;;;;20.50;17.42;;;12.30;99.90;;;;;;5115978;28;20210;-71
2022/05/03 03:11:04;;;;;;;22.25;18.60;;;12.30;99.90;;;;;;5116088;28;20212;-71
2022/05/03 03:13:48;;;;;;;25.00;19.42;;;12.10;99.90;;;;;;5115868;28;20208;-70
2022/05/03 03:16:16;;;;;;;24.90;19.40;;;11.90;99.90;;;;;;5115908;28;20221;-70
2022/05/03 03:18:46;;;;;;;21.88;19.13;;;11.70;99.90;;;;;;5115889;28;20570;-71
2022/05/03 03:21:15;;;;;;;22.60;18.15;;;11.80;99.90;;;;;;5115653;28;20307;-70
2022/05/03 03:23:42;;;;;;;24.10;19.00;;;11.70;99.90;;;;;;5115556;28;20205;-71
2022/05/03 03:26:10;;;;;;;26.38;20.52;;;11.60;99.90;;;;;;5115455;28;20217;-71
2022/05/03 03:28:38;;;;;;;23.42;18.20;;;11.60;99.90;;;;;;5115557;28;20209;-70
2022/05/03 03:31:07;;;;;;;22.20;18.25;;;11.70;99.90;;;;;;5115673;28;20228;-70
2022/05/03 03:33:37;;;;;;;21.00;17.38;;;11.80;99.90;;;;;;5115296;28;20237;-71
2022/05/03 03:36:06;;;;;;;20.60;18.00;;;11.90;99.90;;;;;;5114800;28;20229;-71
2022/05/03 03:38:39;;;;;;;23.50;18.45;;;11.90;99.90;;;;;;5115221;28;20655;-71
2022/05/03 03:41:05;;;;;;;24.30;19.35;;;12.00;99.90;;;;;;5115201;28;20212;-70
2022/05/03 03:43:32;;;;;;;22.70;19.77;;;12.00;99.90;;;;;;5115195;27;20205;-71
2022/05/03 03:45:59;;;;;;;25.67;19.42;;;11.90;99.90;;;;;;5115342;28;20221;-71
2022/05/03 03:48:26;;;;;;;24.15;19.95;;;11.90;99.90;;;;;;5115312;28;20292;-70
2022/05/03 03:50:55;;;;;;;25.67;20.83;;;11.90;99.90;;;;;;5115147;28;20206;-71
2022/05/03 03:53:22;;;;;;;25.42;19.67;;;11.80;99.90;;;;;;5114781;28;20689;-71
2022/05/03 03:55:51;;;;;;;25.02;19.23;;;11.90;99.90;;;;;;5115071;28;20225;-71
2022/05/03 03:58:19;;;;;;;22.95;18.75;;;11.90;99.90;;;;;;5114962;28;20680;-71
2022/05/03 04:00:46;;;;;;;24.25;19.13;;;12.00;99.90;;;;;;5115049;28;20204;-71
2022/05/03 04:03:14;;;;;;;25.02;18.83;;;12.00;99.90;;;;;;5114761;28;20205;-71
2022/05/03 04:05:41;;;;;;;23.38;19.58;;;12.10;99.90;;;;;;5114958;28;20224;-71
2022/05/03 04:08:08;;;;;;;24.05;19.40;;;12.10;99.90;;;;;;5114933;28;20207;-71
2022/05/03 04:10:35;;;;;;;22.67;18.20;;;12.10;99.90;;;;;;5114887;28;20208;-71
2022/05/03 04:13:04;;;;;;;22.80;20.05;;;12.00;99.90;;;;;;5114826;28;20296;-71
2022/05/03 04:15:32;;;;;;;22.98;18.42;;;12.10;99.90;;;;;;5114432;28;20228;-71
2022/05/03 04:18:00;;;;;;;26.40;19.92;;;12.00;99.90;;;;;;5114750;28;20306;-71
2022/05/03 04:20:27;;;;;;;24.35;19.45;;;12.00;99.90;;;;;;5114455;28;20207;-70
2022/05/03 04:22:54;;;;;;;25.17;19.15;;;11.90;99.90;;;;;;5114673;28;20227;-70
2022/05/03 04:25:20;;;;;;;27.17;20.42;;;11.70;99.90;;;;;;5114250;28;20747;-70
2022/05/03 04:27:47;;;;;;;27.90;21.05;;;11.50;99.90;;;;;;5114650;28;20205;-70
2022/05/03 04:30:15;;;;;;;27.80;21.20;;;11.30;99.90;;;;;;5114411;28;20300;-70
2022/05/03 04:32:43;;;;;;;29.73;21.40;;;11.20;99.90;;;;;;5114413;28;20292;-71
2022/05/03 04:35:10;;;;;;;26.77;20.17;;;11.20;99.90;;;;;;5114223;28;20221;-71
2022/05/03 04:37:37;;;;;;;26.13;19.50;;;11.30;99.90;;;;;;5114383;28;20198;-70
2022/05/03 04:40:05;;;;;;;22.85;19.08;;;11.30;99.90;;;;;;5114439;28;20205;-70
2022/05/03 04:42:32;;;;;;;23.90;20.20;;;11.50;99.90;;;;;;5114362;28;20205;-70
2022/05/03 04:44:58;;;;;;;22.73;18.30;;;11.50;99.90;;;;;;5113892;28;20266;-71
2022/05/03 04:47:27;;;;;;;25.05;19.70;;;11.70;99.90;;;;;;5113198;28;20283;-71
2022/05/03 04:49:53;;;;;;;23.88;18.95;;;11.70;99.90;;;;;;5114236;28;20201;-71
2022/05/03 04:52:20;;;;;;;22.45;19.75;;;11.60;99.90;;;;;;5114262;28;20197;-71
2022/05/03 04:54:47;;;;;;;24.95;19.05;;;11.70;99.90;;;;;;5113949;28;20331;-71
2022/05/03 04:57:15;;;;;;;24.65;19.50;;;11.80;99.90;;;;;;5114128;28;20315;-71
2022/05/03 04:59:42;;;;;;;24.35;18.90;;;11.90;99.90;;;;;;5114086;28;20338;-70
2022/05/03 05:02:09;;;;;;;23.70;18.08;;;11.90;99.90;;;;;;5113856;28;20663;-70
2022/05/03 05:04:37;;;;;;;22.52;19.20;;;12.00;99.90;;;;;;5113869;28;20293;-71
2022/05/03 05:07:04;;;;;;;23.30;18.25;;;12.10;99.90;;;;;;5114121;28;20288;-71
2022/05/03 05:09:31;;;;;;;23.25;18.85;;;12.20;99.90;;;;;;5114038;28;20216;-71
2022/05/03 05:11:58;;;;;;;23.15;19.08;;;12.20;99.90;;;;;;5113985;28;20211;-71
2022/05/03 05:14:25;;;;;;;23.50;19.50;;;12.30;99.90;;;;;;5113615;28;20197;-70
2022/05/03 05:16:52;;;;;;;24.17;19.60;;;12.20;99.90;;;;;;5113626;28;20219;-71
2022/05/03 05:19:19;;;;;;;27.75;21.77;;;12.30;99.90;;;;;;5113952;28;20210;-71
2022/05/03 05:21:47;;;;;;;26.02;20.70;;;12.30;99.90;;;;;;5114074;28;20669;-71
2022/05/03 05:24:14;;;;;;;28.65;21.92;;;12.30;99.90;;;;;;5113488;28;20659;-71
2022/05/03 05:26:41;;;;;;;29.65;21.55;;;12.20;99.90;;;;;;5113801;28;20232;-71
2022/05/03 05:29:08;;;;;;;23.73;19.40;;;12.00;99.90;;;;;;5113740;28;20575;-71
2022/05/03 05:31:35;;;;;;;28.65;21.73;;;11.90;99.90;;;;;;5113850;28;20608;-71
2022/05/03 05:34:01;;;;;;;25.17;21.27;;;11.90;99.90;;;;;;5113576;28;20198;-71
2022/05/03 05:36:28;;;;;;;26.98;21.85;;;11.80;99.90;;;;;;5113386;28;20228;-70
2022/05/03 05:38:56;;;;;;;22.58;18.33;;;11.90;99.90;;;;;;5113697;28;20212;-70
2022/05/03 05:41:23;;;;;;;23.88;18.63;;;12.10;99.90;;;;;;5113702;28;20201;-70
2022/05/03 05:43:50;;;;;;;24.15;19.50;;;12.20;99.90;;;;;;5113374;28;20734;-70
2022/05/03 05:46:17;;;;;;;22.10;18.50;;;12.30;99.90;;;;;;5113437;28;20253;-72
2022/05/03 05:48:45;;;;;;;22.48;18.52;;;12.40;99.90;;;;;;5113553;28;20209;-72
2022/05/03 05:51:13;;;;;;;24.40;19.55;;;12.40;99.90;;;;;;5113656;28;20197;-72
2022/05/03 05:53:39;;;;;;;21.75;18.10;;;12.40;99.90;;;;;;5113396;28;20237;-72
2022/05/03 05:56:09;;;;;;;23.10;19.67;;;12.50;99.90;;;;;;5113558;28;20299;-72
2022/05/03 05:58:37;;;;;;;22.52;18.73;;;12.50;99.90;;;;;;5115966;28;20443;-72
2022/05/03 06:01:04;;;;;;;23.73;18.55;;;12.60;99.90;;;;;;5117393;28;20209;-70
2022/05/03 06:03:32;;;;;;;22.75;18.55;;;12.60;99.90;;;;;;5117147;27;20323;-72
2022/05/03 06:05:59;;;;;;;22.95;18.42;;;12.70;99.90;;;;;;5117087;28;20314;-72
2022/05/03 06:08:26;;;;;;;21.52;18.27;;;12.90;99.90;;;;;;5117258;28;20278;-72
2022/05/03 06:10:57;;;;;;;21.98;19.15;;;13.00;99.90;;;;;;5117237;28;20202;-72
2022/05/03 06:13:26;;;;;;;24.67;19.23;;;13.00;99.90;;;;;;5116825;28;20204;-72
2022/05/03 06:15:54;;;;;;;37.30;20.65;;;12.80;99.90;;;;;;5116733;27;20218;-72
2022/05/03 06:18:22;;;;;;;22.98;19.23;;;12.80;99.90;;;;;;5116980;28;20201;-72
2022/05/03 06:20:49;;;;;;;23.67;19.25;;;12.80;99.90;;;;;;5116708;28;20592;-72
2022/05/03 06:23:16;;;;;;;23.55;19.08;;;12.90;99.90;;;;;;5116564;28;20205;-72
2022/05/03 06:25:43;;;;;;;23.65;19.15;;;13.10;99.90;;;;;;5117164;28;20312;-72
2022/05/03 06:28:10;;;;;;;25.15;19.77;;;13.10;99.90;;;;;;5116828;28;20291;-73
2022/05/03 06:30:38;;;;;;;20.83;18.30;;;13.10;99.90;;;;;;5116823;28;20212;-72
2022/05/03 06:33:06;;;;;;;25.60;19.23;;;13.10;99.90;;;;;;5116762;28;20664;-72
2022/05/03 06:35:32;;;;;;;23.67;19.33;;;13.10;99.90;;;;;;5116549;28;20221;-72
2022/05/03 06:37:59;;;;;;;20.80;17.90;;;13.30;99.90;;;;;;5116706;28;20236;-72
2022/05/03 06:40:26;;;;;;;20.80;18.60;;;13.30;99.90;;;;;;5116687;28;20212;-72
2022/05/03 06:42:54;;;;;;;21.35;18.65;;;13.30;99.90;;;;;;5116666;28;20306;-72
2022/05/03 06:45:21;;;;;;;24.70;19.83;;;13.30;99.90;;;;;;5116212;28;20377;-72
2022/05/03 06:47:49;;;;;;;20.67;18.45;;;13.30;99.90;;;;;;5116563;28;20197;-72
2022/05/03 06:50:16;;;;;;;22.08;17.40;;;13.30;99.90;;;;;;5116939;28;20220;-72
2022/05/03 06:52:44;;;;;;;22.30;19.20;;;13.30;99.90;;;;;;5116476;28;20201;-72
2022/05/03 06:55:12;;;;;;;21.58;17.95;;;13.30;99.90;;;;;;5116098;28;20592;-72
2022/05/03 06:57:39;;;;;;;23.50;19.13;;;13.40;99.90;;;;;;5116360;27;20217;-72
2022/05/03 07:00:07;;;;;;;25.40;19.27;;;13.50;99.90;;;;;;5116276;28;20228;-72
2022/05/03 07:02:34;;;;;;;21.67;17.80;;;13.50;99.90;;;;;;5116166;28;20297;-72
2022/05/03 07:05:04;;;;;;;22.08;18.90;;;13.60;99.90;;;;;;5116040;28;20595;-72
2022/05/03 07:07:32;;;;;;;21.70;18.10;;;13.70;99.90;;;;;;5116149;28;20202;-72
2022/05/03 07:10:00;;;;;;;22.50;18.70;;;13.70;99.90;;;;;;5115377;27;20258;-72
2022/05/03 07:12:27;;;;;;;19.75;17.65;;;13.90;99.90;;;;;;5116067;28;20209;-72
2022/05/03 07:14:58;;;;;;;19.30;16.83;;;14.00;99.90;;;;;;5115507;28;20699;-72
2022/05/03 07:22:56;;;;;;;18.77;16.33;;;14.20;99.90;;;;;;5115628;28;20221;-73
2022/05/03 07:25:23;;;;;;;19.42;17.33;;;14.30;99.90;;;;;;5115494;28;20223;-73
2022/05/03 07:27:50;;;;;;;18.27;15.93;;;14.50;99.90;;;;;;5115499;28;20652;-72
2022/05/03 07:30:17;;;;;;;19.77;16.40;;;14.70;99.90;;;;;;5115439;27;20219;-72
2022/05/03 07:32:45;;;;;;;17.52;15.32;;;14.80;99.90;;;;;;5115612;28;20209;-73
2022/05/03 07:35:13;;;;;;;18.63;15.50;;;15.00;99.90;;;;;;5115247;28;20227;-72
2022/05/03 07:37:41;;;;;;;19.83;15.70;;;15.10;99.90;;;;;;5115520;28;20241;-73
2022/05/03 07:40:10;;;;;;;14.18;12.70;;;15.30;99.90;;;;;;5115267;28;20233;-73
2022/05/03 07:42:37;;;;;;;16.05;14.30;;;15.50;99.90;;;;;;5115461;28;20292;-73
2022/05/03 07:45:04;;;;;;;16.90;15.10;;;15.80;99.90;;;;;;5115070;28;20311;-72
2022/05/03 07:47:31;;;;;;;16.83;15.07;;;15.90;99.90;;;;;;5115412;28;20200;-72
2022/05/03 07:49:58;;;;;;;16.25;14.05;;;16.00;99.90;;;;;;5115310;28;20234;-72
2022/05/03 07:52:27;;;;;;;16.25;14.55;;;16.10;99.90;;;;;;5115163;28;20292;-72
2022/05/03 07:54:54;;;;;;;16.17;14.57;;;16.20;99.90;;;;;;5115065;27;20678;-72
2022/05/03 07:57:21;;;;;;;14.70;13.23;;;16.40;99.90;;;;;;5115084;28;20225;-72
2022/05/03 07:59:48;;;;;;;18.40;14.80;;;16.60;99.90;;;;;;5114960;28;20205;-73
2022/05/03 08:02:15;;;;;;;15.23;13.70;;;16.80;99.90;;;;;;5115072;28;20208;-73
2022/05/03 08:04:42;;;;;;;14.27;12.88;;;16.90;99.90;;;;;;5114688;28;20621;-73
2022/05/03 08:07:09;;;;;;;14.38;12.98;;;17.30;99.90;;;;;;5114970;28;20193;-73
2022/05/03 08:09:37;;;;;;;13.73;12.35;;;18.00;99.90;;;;;;5114918;27;20230;-73
2022/05/03 08:12:05;;;;;;;14.50;12.90;;;18.50;99.90;;;;;;5114684;28;20672;-73
2022/05/03 08:14:31;;;;;;;12.87;11.63;;;19.20;99.90;;;;;;5114433;28;20481;-73
2022/05/03 08:16:58;;;;;;;13.60;12.20;;;19.80;99.90;;;;;;5114458;28;21021;-73
2022/05/03 08:19:25;;;;;;;12.60;11.40;;;20.00;99.50;;;;;;5114686;28;20790;-73
2022/05/03 08:21:53;;;;;;;12.43;11.33;;;20.90;96.80;;;;;;5114308;28;20443;-72
2022/05/03 08:24:20;;;;;;;11.40;10.40;;;21.80;95.30;;;;;;5114471;28;20447;-72
2022/05/03 08:26:48;;;;;;;11.70;10.60;;;23.10;91.30;;;;;;5114320;28;20976;-73
2022/05/03 08:29:15;;;;;;;11.47;10.30;;;24.30;86.30;;;;;;5114404;28;20567;-72
2022/05/03 08:31:42;;;;;;;11.47;10.47;;;24.50;79.80;;;;;;5114475;28;20948;-73
2022/05/03 08:34:09;;;;;;;13.17;11.97;;;24.10;76.10;;;;;;5114170;28;20936;-73
2022/05/03 08:36:36;;;;;;;13.47;12.27;;;23.30;78.30;;;;;;5114089;28;20483;-72
2022/05/03 08:42:06;;;;;;;11.27;10.30;;;22.10;81.20;;;;;;5114371;28;20781;-72
2022/05/03 08:44:34;;;;;;;12.90;11.70;;;21.80;82.40;;;;;;5113970;28;20992;-72
2022/05/03 08:47:02;;;;;;;13.60;12.30;;;21.50;83.30;;;;;;5114319;28;20443;-72
2022/05/03 08:49:38;;;;;;;12.77;11.67;;;21.10;85.20;;;;;;5114086;28;20453;-72
2022/05/03 08:52:09;;;;;;;13.83;12.53;;;20.80;88.10;;;;;;5114277;28;20450;-72
2022/05/03 08:54:37;;;;;;;12.50;11.20;;;20.80;88.50;;;;;;5113813;28;20469;-72
2022/05/03 08:57:08;;;;;;;10.80;9.80;;;20.70;86.60;;;;;;5114060;28;20573;-73
2022/05/03 08:59:36;;;;;;;9.47;8.57;;;20.80;89.20;;;;;;5114151;28;20445;-72
2022/05/03 09:02:03;;;;;;;7.57;6.97;;;21.40;83.40;;;;;;5113938;28;20443;-73
2022/05/03 09:04:30;;;;;;;8.50;7.70;;;21.90;79.30;;;;;;5113711;28;20776;-72
2022/05/03 09:06:57;;;;;;;8.33;7.63;;;23.50;78.50;;;;;;5114108;28;20442;-73
2022/05/03 09:09:24;;;;;;;10.20;9.40;;;25.00;72.20;;;;;;5114007;28;20514;-73
2022/05/03 09:11:53;;;;;;;10.13;9.20;;;25.70;67.30;;;;;;5113957;28;20475;-73
2022/05/03 09:17:35;;;;;;;11.20;10.20;;;25.30;66.30;;;;;;5153038;27;20443;-72
2022/05/03 09:23:46;;;;;;;9.57;8.77;;;24.70;65.20;;;;;;5131968;28;20441;-72
2022/05/03 09:25:37;;;;;;;9.13;8.43;;;26.40;63.30;;;;;;5131540;28;20438;-72
2022/05/03 09:28:06;;;;;;;9.40;8.60;;;27.20;60.10;;;;;;5131844;28;20446;-72
2022/05/03 09:30:33;;;;;;;9.40;8.60;;;27.50;57.20;;;;;;5131742;27;20492;-72
2022/05/03 09:33:02;;;;;;;8.80;8.03;;;27.90;56.80;;;;;;5131719;28;20523;-72
2022/05/03 09:35:33;;;;;;;9.10;8.33;;;28.10;56.90;;;;;;5131398;27;20487;-72
2022/05/03 09:38:03;;;;;;;8.60;7.90;;;27.50;56.00;;;;;;5131473;28;20442;-72
2022/05/03 09:40:35;;;;;;;9.37;8.57;;;26.60;59.60;;;;;;5131615;28;20851;-72
2022/05/03 09:43:02;;;;;;;10.90;9.90;;;25.50;60.90;;;;;;5131463;28;20453;-72
2022/05/03 09:45:29;;;;;;;9.20;8.30;;;24.70;60.40;;;;;;5131306;28;20512;-72
2022/05/03 09:47:57;;;;;;;10.03;9.13;;;23.70;64.80;;;;;;5131402;28;20438;-72
2022/05/03 09:50:40;;;;;;;8.93;8.13;;;23.10;66.60;;;;;;5131368;28;20523;-72
2022/05/03 09:53:09;;;;;;;8.73;7.93;;;22.30;69.60;;;;;;5131194;28;20448;-72
2022/05/03 09:55:37;;;;;;;9.03;8.23;;;22.10;68.10;;;;;;5130985;28;20849;-71
2022/05/03 09:58:06;;;;;;;8.73;7.93;;;22.00;69.70;;;;;;5131256;28;20434;-72
2022/05/03 10:00:34;;;;;;;9.40;8.50;;;22.20;69.70;;;;;;5131195;28;20805;-71
2022/05/03 10:03:02;;;;;;;8.63;7.73;;;21.80;71.40;;;;;;5131009;27;20951;-71
2022/05/03 10:05:30;;;;;;;7.93;7.23;;;21.50;73.20;;;;;;5130715;28;20458;-71
2022/05/03 10:07:58;;;;;;;8.57;7.77;;;21.30;71.00;;;;;;5131023;28;20449;-71
2022/05/03 10:10:27;;;;;;;7.07;6.47;;;21.50;71.40;;;;;;5131392;28;20503;-72
2022/05/03 10:12:54;;;;;;;7.40;6.80;;;22.00;72.60;;;;;;5130933;28;20442;-72
2022/05/03 10:21:00;;;;;;;7.13;6.50;;;24.00;64.40;;;;;;5130946;28;20916;-72
2022/05/03 10:23:30;;;;;;;8.57;7.87;;;23.80;64.00;;;;;;5130585;28;20448;-72
2022/05/03 10:25:59;;;;;;;8.30;7.60;;;23.70;64.90;;;;;;5130387;28;20464;-72
2022/05/03 10:28:27;;;;;;;8.23;7.43;;;24.00;64.60;;;;;;5108033;28;20945;-72
2022/05/03 10:31:13;;;;;;;7.77;6.87;;;25.30;62.60;;;;;;5099063;28;20993;-73
2022/05/03 10:33:40;;;;;;;7.43;6.83;;;27.00;59.00;;;;;;5094783;28;20449;-73
2022/05/03 10:36:41;;;;;;;7.97;7.37;;;27.60;56.90;;;;;;5094802;28;20480;-73
2022/05/03 10:39:21;;;;;;;7.57;6.90;;;27.60;54.50;;;;;;5090582;28;20821;-72
2022/05/03 10:42:11;;;;;;;8.20;7.50;;;28.00;54.50;;;;;;5094903;28;20443;-72
2022/05/03 10:44:40;;;;;;;7.20;6.63;;;29.20;52.50;;;;;;5089362;28;20503;-73
2022/05/03 10:47:08;;;;;;;7.73;7.03;;;29.40;51.00;;;;;;5094926;28;20500;-73
2022/05/03 10:49:35;;;;;;;7.20;6.60;;;29.50;50.80;;;;;;5094441;28;20448;-72
2022/05/03 10:52:16;;;;;;;7.20;6.67;;;29.30;49.90;;;;;;5095000;28;20458;-73
2022/05/03 10:55:06;;;;;;;6.50;6.03;;;29.40;49.70;;;;;;5094411;28;20451;-72
2022/05/03 10:57:33;;;;;;;7.63;7.03;;;28.90;50.50;;;;;;5094568;28;20490;-72
2022/05/03 11:00:00;;;;;;;6.47;5.97;;;28.00;50.50;;;;;;5094259;28;20454;-73
2022/05/03 11:02:27;;;;;;;6.30;5.80;;;27.40;52.20;;;;;;5094690;28;20858;-73
2022/05/03 11:05:18;;;;;;;6.10;5.53;;;26.90;53.60;;;;;;5094351;28;20892;-73
2022/05/03 11:08:18;;;;;;;6.37;5.87;;;27.10;54.00;;;;;;5094666;28;20513;-73
2022/05/03 11:10:46;;;;;;;6.97;6.40;;;26.70;53.30;;;;;;5094691;28;20448;-71
2022/05/03 11:13:39;;;;;;;6.73;6.20;;;26.50;55.70;;;;;;5094759;28;20467;-73
2022/05/03 11:16:26;;;;;;;6.73;6.13;;;26.30;55.50;;;;;;5094148;28;20496;-72
2022/05/03 11:18:53;;;;;;;6.50;6.00;;;25.70;54.00;;;;;;5093844;28;20478;-72
2022/05/03 11:21:21;;;;;;;7.30;6.70;;;24.90;55.90;;;;;;5094271;28;21029;-72
2022/05/03 11:23:50;;;;;;;6.83;6.33;;;24.70;58.80;;;;;;5094565;28;20502;-72
2022/05/03 11:26:19;;;;;;;6.57;6.00;;;24.30;57.30;;;;;;5094123;28;20492;-70
2022/05/03 11:28:48;;;;;;;6.70;6.20;;;23.20;57.40;;;;;;5093878;28;20476;-71
2022/05/03 11:31:18;;;;;;;6.90;6.30;;;22.60;61.10;;;;;;5093960;28;20930;-71
2022/05/03 11:33:52;;;;;;;7.17;6.57;;;22.30;62.50;;;;;;5094111;28;20448;-71
2022/05/03 11:36:19;;;;;;;7.83;7.23;;;22.20;63.70;;;;;;5094044;28;20486;-72
2022/05/03 11:38:49;;;;;;;7.20;6.60;;;22.30;62.80;;;;;;5092813;28;20459;-71
2022/05/03 11:41:16;;;;;;;8.20;7.40;;;22.50;64.30;;;;;;5094121;28;20463;-71
2022/05/03 11:43:44;;;;;;;7.40;6.70;;;22.80;63.80;;;;;;5093590;28;20444;-71
2022/05/03 11:46:11;;;;;;;7.87;7.27;;;22.80;63.30;;;;;;5093916;28;20457;-71
2022/05/03 11:48:38;;;;;;;7.90;7.30;;;23.10;62.90;;;;;;5093613;28;20449;-71
2022/05/03 11:56:36;;;;;;;7.30;6.70;;;22.70;63.20;;;;;;5093554;28;20610;-71
2022/05/03 11:59:05;;;;;;;7.00;6.40;;;23.00;61.30;;;;;;5093379;28;20475;-71
2022/05/03 12:01:34;;;;;;;8.37;7.33;;;22.90;61.10;;;;;;5093225;28;20452;-71
2022/05/03 12:04:02;;;;;;;7.73;7.13;;;23.00;62.30;;;;;;5093241;28;20480;-71
2022/05/03 12:06:43;;;;;;;7.77;7.07;;;23.10;61.30;;;;;;5093238;28;20477;-70
2022/05/03 12:09:11;;;;;;;7.30;6.70;;;23.30;61.10;;;;;;5093298;28;20548;-69
2022/05/03 12:12:42;;;;;;;7.40;6.80;;;23.40;61.30;;;;;;5093152;28;20449;-69
2022/05/03 12:14:36;;;;;;;7.43;6.67;;;23.40;60.50;;;;;;5093010;28;20951;-69
2022/05/03 12:17:03;;;;;;;6.33;5.83;;;23.40;57.50;;;;;;5092866;28;21027;-69
2022/05/03 12:19:34;;;;;;;6.80;6.20;;;23.00;59.50;;;;;;5093125;28;20448;-70
2022/05/03 12:22:10;;;;;;;7.13;6.53;;;22.70;59.20;;;;;;5092927;28;20819;-69
2022/05/03 12:24:41;;;;;;;8.03;7.40;;;22.60;63.00;;;;;;5093082;28;20448;-69
2022/05/03 12:27:12;;;;;;;6.90;6.30;;;22.50;62.90;;;;;;5093053;28;20444;-70
2022/05/03 12:29:44;;;;;;;8.07;7.27;;;22.50;63.00;;;;;;5092285;28;20444;-68
2022/05/03 12:32:15;;;;;;;6.97;6.47;;;22.30;64.90;;;;;;5092601;28;21002;-70
2022/05/03 12:34:54;;;;;;;6.83;6.23;;;22.10;66.50;;;;;;5092932;28;20448;-71
2022/05/03 12:37:21;;;;;;;7.50;6.80;;;22.10;67.20;;;;;;5092727;28;20480;-70
2022/05/03 12:39:48;;;;;;;6.70;6.10;;;22.00;67.00;;;;;;5092604;28;20443;-72
2022/05/03 12:42:16;;;;;;;6.60;6.10;;;22.00;67.10;;;;;;5092315;28;20534;-69
2022/05/03 12:44:51;;;;;;;6.93;6.33;;;21.90;67.40;;;;;;5092541;28;20451;-69
2022/05/03 12:47:18;;;;;;;6.80;6.10;;;21.80;67.60;;;;;;5092687;28;20439;-71
2022/05/03 12:49:45;;;;;;;7.00;6.40;;;21.70;67.90;;;;;;5092109;28;20948;-71
2022/05/03 12:52:12;;;;;;;6.73;6.20;;;21.60;67.90;;;;;;5092373;28;20447;-71
2022/05/03 12:54:39;;;;;;;6.47;5.97;;;21.50;72.00;;;;;;5092349;28;20451;-70
2022/05/03 12:59:52;;;;;;;6.00;5.50;;;21.20;71.10;;;;;;5092335;28;20472;-70
2022/05/03 13:02:19;;;;;;;6.07;5.47;;;20.90;69.90;;;;;;5092637;28;20508;-71
2022/05/03 13:04:47;;;;;;;5.57;5.07;;;20.60;70.80;;;;;;5092331;28;20541;-70
2022/05/03 13:07:14;;;;;;;6.37;5.80;;;20.30;72.40;;;;;;5092187;28;20449;-71
2022/05/03 13:09:40;;;;;;;7.47;5.47;;;20.00;73.60;;;;;;5092245;28;20484;-70
2022/05/03 13:12:09;;;;;;;7.27;6.20;;;19.80;74.80;;;;;;5092432;28;20533;-70
2022/05/03 13:14:36;;;;;;;8.57;7.67;;;19.60;75.80;;;;;;5092304;28;20453;-70
2022/05/03 13:17:05;;;;;;;8.87;7.97;;;19.40;78.20;;;;;;5092085;28;20484;-71
2022/05/03 13:19:32;;;;;;;7.50;6.90;;;19.30;80.20;;;;;;5091964;28;20484;-70
2022/05/03 13:21:59;;;;;;;6.47;5.70;;;19.20;81.60;;;;;;5092302;28;20208;-70
2022/05/03 13:24:26;;;;;;;5.77;5.27;;;19.20;82.70;;;;;;5092532;28;20563;-70
2022/05/03 13:26:54;;;;;;;6.70;6.10;;;19.10;81.90;;;;;;5092146;28;20555;-70